createdAt,value
2022-11-16T00:01:17.755Z,10.50
2022-11-16T00:03:44.903Z,10.43
2022-11-16T00:06:12.955Z,10.48
2022-11-16T00:08:42.106Z,10.53
2022-11-16T00:11:11.547Z,10.57
2022-11-16T00:13:39.506Z,10.58
2022-11-16T00:16:07.526Z,10.44
2022-11-16T00:18:34.587Z,10.58
2022-11-16T00:21:03.865Z,10.56
2022-11-16T00:23:30.214Z,10.58
2022-11-16T00:26:02.527Z,10.55
2022-11-16T00:28:29.140Z,10.53
2022-11-16T00:31:00.578Z,10.51
2022-11-16T00:33:27.305Z,10.58
2022-11-16T00:35:53.730Z,10.57
2022-11-16T00:38:20.470Z,10.56
2022-11-16T00:40:46.923Z,10.56
2022-11-16T00:43:13.283Z,10.52
2022-11-16T00:45:40.549Z,10.56
2022-11-16T00:48:07.051Z,10.56
2022-11-16T00:50:33.439Z,10.62
2022-11-16T00:53:00.227Z,10.46
2022-11-16T00:55:26.582Z,10.67
2022-11-16T00:57:52.962Z,10.50
2022-11-16T01:00:19.443Z,10.67
2022-11-16T01:02:45.802Z,10.67
2022-11-16T01:05:12.351Z,10.67
2022-11-16T01:07:40.091Z,10.58
2022-11-16T01:10:10.779Z,10.74
2022-11-16T01:12:37.510Z,10.66
2022-11-16T01:15:06.874Z,10.79
2022-11-16T01:17:33.227Z,10.74
2022-11-16T01:19:59.598Z,10.81
2022-11-16T01:22:25.943Z,10.87
2022-11-16T01:24:52.380Z,10.79
2022-11-16T01:27:18.740Z,10.90
2022-11-16T01:29:45.486Z,10.88
2022-11-16T01:32:11.893Z,10.79
2022-11-16T01:34:38.260Z,10.88
2022-11-16T01:37:04.622Z,10.75
2022-11-16T01:39:30.975Z,10.99
2022-11-16T01:41:57.300Z,10.99
2022-11-16T01:44:32.825Z,10.98
2022-11-16T01:47:00.638Z,10.95
2022-11-16T01:49:30.774Z,10.97
2022-11-16T01:52:01.721Z,10.95
2022-11-16T01:54:30.886Z,10.92
2022-11-16T01:57:02.706Z,10.96
2022-11-16T01:59:29.644Z,11.04
2022-11-16T02:01:56.856Z,11.00
2022-11-16T02:04:23.234Z,10.98
2022-11-16T02:07:08.008Z,10.97
2022-11-16T02:10:08.622Z,10.92
2022-11-16T02:12:40.793Z,10.91
2022-11-16T02:15:45.566Z,10.88
2022-11-16T02:18:36.731Z,10.84
2022-11-16T02:21:28.682Z,10.70
2022-11-16T02:24:24.146Z,10.81
2022-11-16T02:27:12.464Z,10.75
2022-11-16T02:29:47.022Z,10.71
2022-11-16T02:32:19.219Z,10.72
2022-11-16T02:34:52.138Z,10.73
2022-11-16T02:37:22.403Z,10.75
2022-11-16T02:39:58.937Z,10.73
2022-11-16T02:42:33.083Z,10.72
2022-11-16T02:45:02.155Z,10.71
2022-11-16T02:47:33.277Z,10.58
2022-11-16T02:50:05.041Z,10.61
2022-11-16T02:52:31.417Z,10.65
2022-11-16T02:54:57.907Z,10.67
2022-11-16T02:57:40.415Z,10.65
2022-11-16T03:00:09.067Z,10.59
2022-11-16T03:02:59.455Z,10.66
2022-11-16T03:05:35.455Z,10.65
2022-11-16T03:08:21.974Z,10.62
2022-11-16T03:11:14.334Z,10.64
2022-11-16T03:13:41.919Z,10.64
2022-11-16T03:16:16.528Z,10.65
2022-11-16T03:18:47.188Z,10.64
2022-11-16T03:21:30.478Z,10.65
2022-11-16T03:23:57.603Z,10.57
2022-11-16T03:26:29.809Z,10.58
2022-11-16T03:29:33.546Z,10.56
2022-11-16T03:32:11.189Z,10.61
2022-11-16T03:34:41.557Z,10.51
2022-11-16T03:37:09.579Z,10.53
2022-11-16T03:39:39.108Z,10.53
2022-11-16T03:42:14.020Z,10.57
2022-11-16T03:44:42.151Z,10.51
2022-11-16T03:47:08.514Z,10.52
2022-11-16T03:49:35.064Z,10.45
2022-11-16T03:52:01.462Z,10.25
2022-11-16T03:54:27.860Z,10.48
2022-11-16T03:56:54.381Z,10.48
2022-11-16T03:59:20.761Z,10.50
2022-11-16T04:01:47.136Z,10.39
2022-11-16T04:04:33.504Z,10.48
2022-11-16T04:07:18.380Z,10.48
2022-11-16T04:10:03.540Z,10.38
2022-11-16T04:12:48.703Z,10.48
2022-11-16T04:15:33.549Z,10.50
2022-11-16T04:18:18.406Z,10.48
2022-11-16T04:21:04.330Z,10.47
2022-11-16T04:23:49.501Z,10.48
2022-11-16T04:26:16.139Z,10.52
2022-11-16T04:28:42.962Z,10.50
2022-11-16T04:31:28.007Z,10.50
2022-11-16T04:34:13.307Z,10.50
2022-11-16T04:36:58.091Z,10.51
2022-11-16T04:39:24.439Z,10.50
2022-11-16T04:42:09.256Z,10.50
2022-11-16T04:44:55.125Z,10.47
2022-11-16T04:47:21.515Z,10.36
2022-11-16T04:49:47.859Z,10.44
2022-11-16T04:52:14.215Z,10.45
2022-11-16T04:54:40.590Z,10.42
2022-11-16T04:57:07.123Z,10.36
2022-11-16T04:59:33.460Z,10.43
2022-11-16T05:02:08.807Z,10.45
2022-11-16T05:04:40.951Z,10.43
2022-11-16T05:07:11.191Z,10.42
2022-11-16T05:09:42.866Z,10.44
2022-11-16T05:12:18.502Z,10.46
2022-11-16T05:14:45.455Z,10.45
2022-11-16T05:17:12.657Z,10.38
2022-11-16T05:19:58.054Z,10.44
2022-11-16T05:22:25.063Z,10.43
2022-11-16T05:24:52.389Z,10.42
2022-11-16T05:27:21.180Z,10.46
2022-11-16T05:29:49.644Z,10.37
2022-11-16T05:32:17.366Z,10.41
2022-11-16T05:34:43.815Z,10.37
2022-11-16T05:37:10.311Z,10.40
2022-11-16T05:39:36.935Z,10.39
2022-11-16T05:42:03.493Z,10.44
2022-11-16T05:44:29.879Z,10.45
2022-11-16T05:46:56.427Z,10.45
2022-11-16T05:49:23.423Z,10.44
2022-11-16T05:51:50.476Z,10.30
2022-11-16T05:54:20.674Z,10.33
2022-11-16T05:56:49.420Z,10.39
2022-11-16T05:59:17.604Z,10.38
2022-11-16T06:01:44.399Z,10.38
2022-11-16T06:04:11.588Z,10.34
2022-11-16T06:06:38.450Z,10.33
2022-11-16T06:09:05.529Z,10.19
2022-11-16T06:11:35.750Z,10.35
2022-11-16T06:14:03.021Z,10.35
2022-11-16T06:16:29.408Z,10.26
2022-11-16T06:18:55.844Z,10.17
2022-11-16T06:21:22.259Z,10.30
2022-11-16T06:23:49.120Z,10.34
2022-11-16T06:26:15.602Z,10.34
2022-11-16T06:28:42.093Z,10.38
2022-11-16T06:31:08.423Z,10.32
2022-11-16T06:33:34.802Z,10.40
2022-11-16T06:36:01.273Z,10.39
2022-11-16T06:38:27.738Z,10.23
2022-11-16T06:40:56.775Z,10.41
2022-11-16T06:43:24.510Z,10.35
2022-11-16T06:45:52.964Z,10.36
2022-11-16T06:48:19.843Z,10.43
2022-11-16T06:50:51.888Z,10.33
2022-11-16T06:53:19.110Z,10.46
2022-11-16T06:55:47.615Z,10.46
2022-11-16T06:58:14.474Z,10.42
2022-11-16T07:00:40.993Z,10.37
2022-11-16T07:03:07.413Z,10.39
2022-11-16T07:05:33.794Z,10.41
2022-11-16T07:08:00.331Z,10.38
2022-11-16T07:10:27.159Z,10.37
2022-11-16T07:12:53.576Z,10.43
2022-11-16T07:15:20.062Z,10.41
2022-11-16T07:17:47.097Z,10.34
2022-11-16T07:20:14.163Z,10.22
2022-11-16T07:22:40.816Z,10.42
2022-11-16T07:25:07.961Z,10.43
2022-11-16T07:27:34.356Z,10.39
2022-11-16T07:30:02.057Z,10.26
2022-11-16T07:32:30.758Z,10.40
2022-11-16T07:34:59.254Z,10.27
2022-11-16T07:37:26.300Z,10.37
2022-11-16T07:39:52.731Z,10.38
2022-11-16T07:42:19.121Z,10.39
2022-11-16T07:44:45.528Z,10.39
2022-11-16T07:47:11.892Z,10.19
2022-11-16T07:49:38.343Z,10.34
2022-11-16T07:52:05.061Z,10.35
2022-11-16T07:54:31.547Z,10.39
2022-11-16T07:56:57.913Z,10.21
2022-11-16T07:59:24.271Z,10.34
2022-11-16T08:01:50.742Z,10.33
2022-11-16T08:04:17.534Z,10.37
2022-11-16T08:06:44.402Z,10.39
2022-11-16T08:09:10.762Z,10.35
2022-11-16T08:11:37.948Z,10.37
2022-11-16T08:14:04.366Z,10.42
2022-11-16T08:16:33.153Z,10.39
2022-11-16T08:19:00.810Z,10.44
2022-11-16T08:21:27.758Z,10.27
2022-11-16T08:23:58.337Z,10.30
2022-11-16T08:26:25.360Z,10.22
2022-11-16T08:28:53.811Z,10.41
2022-11-16T08:31:24.071Z,10.19
2022-11-16T08:33:51.632Z,10.42
2022-11-16T08:36:18.904Z,10.40
2022-11-16T08:38:47.071Z,10.40
2022-11-16T08:41:14.161Z,10.38
2022-11-16T08:43:40.859Z,10.39
2022-11-16T08:46:08.449Z,10.44
2022-11-16T08:48:36.026Z,10.46
2022-11-16T08:51:20.528Z,10.30
2022-11-16T08:53:48.915Z,10.47
2022-11-16T08:56:16.800Z,10.58
2022-11-16T08:58:47.270Z,10.52
2022-11-16T09:01:16.560Z,10.57
2022-11-16T09:03:44.133Z,10.44
2022-11-16T09:06:11.418Z,10.63
2022-11-16T09:08:39.780Z,10.62
2022-11-16T09:11:08.290Z,10.64
2022-11-16T09:13:35.172Z,10.62
2022-11-16T09:16:02.158Z,10.65
2022-11-16T09:18:30.938Z,10.71
2022-11-16T09:20:57.711Z,10.68
2022-11-16T09:23:25.705Z,10.69
2022-11-16T09:25:52.858Z,10.70
2022-11-16T09:28:19.706Z,10.76
2022-11-16T09:30:48.573Z,10.78
2022-11-16T09:33:14.975Z,10.78
2022-11-16T09:35:41.741Z,10.70
2022-11-16T09:38:09.955Z,10.80
2022-11-16T09:40:39.078Z,10.83
2022-11-16T09:43:45.849Z,10.90
2022-11-16T09:46:34.611Z,10.94
2022-11-16T09:49:04.954Z,10.85
2022-11-16T09:51:38.755Z,10.98
2022-11-16T09:54:08.508Z,11.06
2022-11-16T09:56:39.861Z,11.04
2022-11-16T09:59:20.994Z,11.09
2022-11-16T10:02:02.975Z,11.06
2022-11-16T10:04:29.318Z,11.16
2022-11-16T10:07:15.997Z,11.15
2022-11-16T10:09:44.559Z,11.15
2022-11-16T10:12:45.987Z,11.18
2022-11-16T10:15:30.845Z,11.28
2022-11-16T10:18:34.804Z,11.28
2022-11-16T10:21:28.187Z,11.26
2022-11-16T10:24:03.640Z,11.23
2022-11-16T10:26:40.074Z,11.29
2022-11-16T10:29:24.620Z,11.30
2022-11-16T10:32:03.240Z,11.34
2022-11-16T10:34:53.971Z,11.34
2022-11-16T10:37:21.587Z,11.34
2022-11-16T10:39:50.717Z,11.35
2022-11-16T10:42:23.022Z,11.31
2022-11-16T10:44:59.775Z,11.45
2022-11-16T10:47:51.984Z,11.44
2022-11-16T10:50:33.519Z,11.70
2022-11-16T10:53:00.661Z,11.90
2022-11-16T10:55:28.656Z,12.55
2022-11-16T10:58:05.876Z,13.13
2022-11-16T11:00:38.495Z,13.44
2022-11-16T11:03:05.267Z,13.30
2022-11-16T11:05:32.152Z,13.72
2022-11-16T11:08:06.003Z,13.17
2022-11-16T11:10:36.023Z,12.93
2022-11-16T11:13:11.293Z,12.77
2022-11-16T11:15:39.722Z,12.48
2022-11-16T11:18:24.064Z,12.43
2022-11-16T11:21:06.142Z,12.37
2022-11-16T11:23:45.116Z,12.49
2022-11-16T11:26:34.676Z,12.46
2022-11-16T11:29:34.474Z,12.31
2022-11-16T11:32:05.703Z,12.18
2022-11-16T11:34:41.510Z,12.32
2022-11-16T11:37:16.958Z,12.28
2022-11-16T11:39:43.403Z,12.34
2022-11-16T11:42:12.814Z,12.27
2022-11-16T11:44:57.048Z,12.22
2022-11-16T11:50:21.618Z,12.02
2022-11-16T11:53:03.310Z,12.11
2022-11-16T11:55:29.735Z,11.76
2022-11-16T11:57:58.106Z,11.86
2022-11-16T12:00:26.062Z,11.87
2022-11-16T12:03:45.382Z,12.00
2022-11-16T12:06:37.708Z,12.35
2022-11-16T12:09:21.957Z,12.97
2022-11-16T12:12:15.023Z,12.95
2022-11-16T12:15:19.441Z,12.85
2022-11-16T12:18:19.906Z,12.94
2022-11-16T12:21:09.003Z,13.01
2022-11-16T12:23:50.305Z,13.16
2022-11-16T12:26:37.147Z,13.34
2022-11-16T12:29:21.561Z,13.42
2022-11-16T12:32:14.666Z,13.33
2022-11-16T12:34:46.737Z,13.10
2022-11-16T12:37:31.699Z,13.22
2022-11-16T12:40:24.461Z,13.48
2022-11-16T12:43:38.750Z,13.47
2022-11-16T12:46:28.547Z,13.55
2022-11-16T12:49:24.177Z,13.88
2022-11-16T12:52:00.570Z,13.56
2022-11-16T12:55:03.928Z,14.08
2022-11-16T12:57:46.453Z,14.08
2022-11-16T13:00:18.577Z,13.98
2022-11-16T13:03:03.614Z,13.63
2022-11-16T13:05:42.044Z,13.53
2022-11-16T13:08:22.942Z,13.46
2022-11-16T13:10:52.774Z,13.25
2022-11-16T13:13:37.411Z,13.17
2022-11-16T13:16:06.582Z,13.17
2022-11-16T13:18:37.522Z,13.29
2022-11-16T13:21:17.485Z,13.60
2022-11-16T13:23:48.778Z,13.43
2022-11-16T13:26:29.274Z,13.63
2022-11-16T13:29:23.339Z,13.41
2022-11-16T13:31:58.457Z,13.39
2022-11-16T13:34:27.387Z,13.38
2022-11-16T13:36:53.767Z,13.24
2022-11-16T13:39:23.027Z,13.16
2022-11-16T13:42:07.531Z,13.17
2022-11-16T13:44:34.703Z,13.10
2022-11-16T13:47:04.734Z,13.07
2022-11-16T13:49:40.847Z,12.89
2022-11-16T13:52:35.674Z,12.87
2022-11-16T13:54:59.110Z,12.68
2022-11-16T13:57:33.600Z,12.73
2022-11-16T14:00:03.299Z,12.67
2022-11-16T14:02:29.634Z,12.72
2022-11-16T14:04:59.955Z,12.64
2022-11-16T14:07:31.257Z,12.54
2022-11-16T14:10:01.147Z,12.45
2022-11-16T14:12:56.129Z,12.41
2022-11-16T14:15:34.222Z,12.43
2022-11-16T14:18:09.427Z,12.33
2022-11-16T14:20:45.223Z,12.31
2022-11-16T14:23:52.100Z,12.31
2022-11-16T14:26:53.724Z,12.08
2022-11-16T14:29:34.304Z,12.13
2022-11-16T14:32:03.513Z,11.95
2022-11-16T14:34:44.186Z,12.08
2022-11-16T14:37:33.675Z,12.04
2022-11-16T14:40:19.138Z,12.07
2022-11-16T14:45:39.741Z,12.02
2022-11-16T14:48:17.262Z,11.91
2022-11-16T14:51:00.369Z,11.88
2022-11-16T14:53:29.203Z,11.83
2022-11-16T14:56:10.867Z,11.74
2022-11-16T14:58:37.926Z,11.69
2022-11-16T15:01:14.075Z,11.60
2022-11-16T15:03:52.541Z,11.44
2022-11-16T15:06:20.142Z,11.39
2022-11-16T15:08:54.474Z,11.29
2022-11-16T15:11:48.030Z,11.18
2022-11-16T15:14:18.842Z,11.12
2022-11-16T15:16:50.865Z,11.04
2022-11-16T15:19:17.348Z,10.98
2022-11-16T15:22:01.282Z,10.93
2022-11-16T15:24:31.702Z,10.89
2022-11-16T15:27:11.569Z,10.81
2022-11-16T15:29:38.129Z,10.75
2022-11-16T15:32:06.874Z,10.74
2022-11-16T15:34:33.414Z,10.69
2022-11-16T15:36:59.786Z,10.64
2022-11-16T15:39:33.475Z,10.52
2022-11-16T15:42:03.803Z,10.46
2022-11-16T15:44:31.823Z,10.66
2022-11-16T15:46:58.762Z,10.58
2022-11-16T15:49:31.390Z,10.42
2022-11-16T15:51:59.402Z,10.28
2022-11-16T15:54:27.917Z,10.14
2022-11-16T15:57:07.778Z,10.00
2022-11-16T15:59:36.963Z,9.93
2022-11-16T16:02:04.128Z,9.93
2022-11-16T16:04:30.973Z,9.94
2022-11-16T16:06:59.647Z,9.97
2022-11-16T16:09:27.645Z,9.93
2022-11-16T16:11:56.800Z,9.87
2022-11-16T16:14:48.514Z,9.95
2022-11-16T16:17:29.351Z,9.99
2022-11-16T16:19:59.493Z,10.04
2022-11-16T16:22:31.931Z,10.06
2022-11-16T16:24:58.726Z,9.97
2022-11-16T16:27:27.451Z,10.07
2022-11-16T16:29:56.023Z,10.09
2022-11-16T16:32:30.901Z,10.09
2022-11-16T16:34:59.306Z,10.06
2022-11-16T16:37:27.943Z,10.14
2022-11-16T16:39:54.359Z,10.07
2022-11-16T16:42:20.946Z,10.06
2022-11-16T16:44:48.412Z,10.02
2022-11-16T16:47:16.433Z,9.97
2022-11-16T16:49:43.262Z,9.97
2022-11-16T16:52:12.097Z,9.92
2022-11-16T16:54:38.634Z,9.93
2022-11-16T16:57:04.991Z,9.90
2022-11-16T16:59:31.522Z,9.90
2022-11-16T17:01:58.884Z,9.85
2022-11-16T17:04:25.628Z,9.86
2022-11-16T17:06:53.159Z,9.82
2022-11-16T17:09:20.268Z,9.81
2022-11-16T17:11:47.599Z,9.85
2022-11-16T17:14:14.192Z,9.82
2022-11-16T17:16:40.862Z,9.90
2022-11-16T17:19:07.230Z,9.82
2022-11-16T17:21:33.580Z,9.95
2022-11-16T17:23:59.971Z,9.78
2022-11-16T17:26:29.235Z,9.77
2022-11-16T17:28:56.980Z,10.00
2022-11-16T17:31:24.455Z,10.01
2022-11-16T17:33:51.234Z,9.93
2022-11-16T17:36:17.942Z,9.86
2022-11-16T17:38:44.943Z,9.76
2022-11-16T17:41:14.182Z,9.64
2022-11-16T17:43:42.203Z,9.80
2022-11-16T17:46:11.222Z,9.71
2022-11-16T17:48:39.158Z,9.73
2022-11-16T17:51:06.237Z,9.70
2022-11-16T17:53:34.967Z,9.54
2022-11-16T17:56:02.911Z,9.72
2022-11-16T17:58:31.538Z,9.68
2022-11-16T18:00:58.276Z,9.59
2022-11-16T18:03:25.143Z,9.52
2022-11-16T18:05:51.914Z,9.56
2022-11-16T18:08:18.461Z,9.47
2022-11-16T18:10:44.899Z,9.39
2022-11-16T18:13:11.301Z,9.39
2022-11-16T18:15:42.313Z,9.42
2022-11-16T18:18:09.111Z,9.38
2022-11-16T18:20:37.071Z,9.39
2022-11-16T18:23:04.313Z,9.34
2022-11-16T18:25:33.219Z,9.29
2022-11-16T18:27:59.596Z,9.26
2022-11-16T18:30:25.964Z,9.20
2022-11-16T18:32:52.409Z,9.15
2022-11-16T18:35:18.796Z,9.12
2022-11-16T18:37:45.251Z,9.01
2022-11-16T18:40:12.130Z,8.99
2022-11-16T18:42:38.988Z,8.85
2022-11-16T18:45:06.042Z,8.80
2022-11-16T18:47:32.455Z,8.75
2022-11-16T18:49:58.889Z,8.77
2022-11-16T18:52:25.370Z,8.79
2022-11-16T18:54:51.788Z,8.78
2022-11-16T18:57:18.125Z,8.80
2022-11-16T18:59:44.502Z,8.73
2022-11-16T19:02:12.520Z,8.75
2022-11-16T19:04:40.243Z,8.71
2022-11-16T19:07:07.494Z,8.74
2022-11-16T19:09:33.898Z,8.60
2022-11-16T19:12:00.278Z,8.67
2022-11-16T19:14:26.719Z,8.55
2022-11-16T19:16:57.082Z,8.45
2022-11-16T19:19:25.227Z,8.44
2022-11-16T19:21:52.020Z,8.41
2022-11-16T19:24:18.438Z,8.46
2022-11-16T19:26:44.864Z,8.40
2022-11-16T19:29:11.233Z,8.27
2022-11-16T19:31:37.610Z,8.44
2022-11-16T19:34:06.740Z,8.43
2022-11-16T19:36:35.258Z,8.45
2022-11-16T19:39:02.305Z,8.46
2022-11-16T19:41:28.767Z,8.39
2022-11-16T19:43:59.823Z,8.38
2022-11-16T19:46:28.267Z,8.39
2022-11-16T19:48:55.301Z,8.34
2022-11-16T19:51:31.959Z,8.34
2022-11-16T19:54:00.133Z,8.37
2022-11-16T19:56:26.788Z,8.39
2022-11-16T19:58:53.739Z,8.42
2022-11-16T20:01:23.579Z,8.38
2022-11-16T20:03:50.063Z,8.40
2022-11-16T20:06:19.108Z,8.32
2022-11-16T20:08:53.953Z,8.11
2022-11-16T20:11:23.186Z,8.31
2022-11-16T20:13:51.546Z,8.21
2022-11-16T20:16:19.928Z,8.36
2022-11-16T20:18:46.815Z,8.32
2022-11-16T20:21:21.985Z,8.29
2022-11-16T20:23:49.335Z,8.36
2022-11-16T20:26:15.804Z,8.27
2022-11-16T20:28:43.576Z,8.28
2022-11-16T20:31:12.696Z,8.35
2022-11-16T20:33:39.400Z,8.28
2022-11-16T20:36:08.682Z,8.25
2022-11-16T20:38:36.410Z,8.22
2022-11-16T20:41:23.491Z,8.22
2022-11-16T20:43:51.922Z,8.04
2022-11-16T20:46:20.728Z,8.19
2022-11-16T20:48:48.908Z,8.14
2022-11-16T20:51:17.910Z,7.98
2022-11-16T20:53:46.030Z,8.18
2022-11-16T20:56:12.958Z,8.18
2022-11-16T20:58:39.582Z,8.17
2022-11-16T21:01:31.699Z,8.19
2022-11-16T21:04:02.009Z,8.17
2022-11-16T21:06:29.087Z,8.13
2022-11-16T21:08:56.169Z,8.12
2022-11-16T21:11:29.014Z,8.11
2022-11-16T21:14:14.598Z,7.93
2022-11-16T21:16:41.050Z,8.05
2022-11-16T21:19:07.540Z,8.10
2022-11-16T21:21:34.201Z,7.91
2022-11-16T21:24:00.876Z,8.03
2022-11-16T21:26:29.380Z,7.83
2022-11-16T21:28:57.036Z,7.85
2022-11-16T21:31:26.622Z,7.91
2022-11-16T21:33:54.122Z,7.85
2022-11-16T21:36:22.865Z,8.01
2022-11-16T21:38:50.068Z,7.98
2022-11-16T21:41:18.317Z,7.97
2022-11-16T21:43:44.841Z,7.94
2022-11-16T21:46:14.202Z,7.98
2022-11-16T21:48:41.150Z,7.96
2022-11-16T21:51:10.083Z,7.92
2022-11-16T21:53:37.472Z,7.89
2022-11-16T21:56:05.591Z,7.91
2022-11-16T21:58:31.965Z,7.89
2022-11-16T22:01:00.441Z,7.87
2022-11-16T22:03:29.258Z,7.86
2022-11-16T22:06:16.485Z,7.84
2022-11-16T22:08:43.687Z,7.86
2022-11-16T22:11:10.725Z,7.86
2022-11-16T22:13:38.112Z,7.83
2022-11-16T22:16:06.672Z,7.86
2022-11-16T22:18:33.587Z,7.82
2022-11-16T22:21:01.065Z,7.80
2022-11-16T22:23:28.302Z,7.82
2022-11-16T22:25:59.772Z,7.75
2022-11-16T22:28:26.411Z,7.76
2022-11-16T22:31:00.294Z,7.77
2022-11-16T22:33:26.869Z,7.73
2022-11-16T22:35:53.323Z,7.77
2022-11-16T22:38:19.689Z,7.81
2022-11-16T22:40:53.602Z,7.79
2022-11-16T22:43:21.235Z,7.81
2022-11-16T22:45:47.651Z,7.60
2022-11-16T22:48:14.242Z,7.77
2022-11-16T22:50:40.768Z,7.79
2022-11-16T22:53:07.202Z,7.70
2022-11-16T22:55:38.140Z,7.83
2022-11-16T22:58:05.448Z,7.76
2022-11-16T23:00:37.482Z,7.76
2022-11-16T23:03:07.222Z,7.79
2022-11-16T23:05:33.667Z,7.80
2022-11-16T23:08:00.059Z,7.82
2022-11-16T23:10:26.470Z,7.83
2022-11-16T23:13:11.789Z,7.80
2022-11-16T23:15:49.968Z,7.85
2022-11-16T23:18:17.309Z,7.77
2022-11-16T23:21:02.287Z,7.86
2022-11-16T23:23:47.071Z,7.85
2022-11-16T23:26:40.976Z,7.66
2022-11-16T23:29:11.323Z,7.82
2022-11-16T23:31:38.274Z,7.84
2022-11-16T23:34:05.235Z,7.70
2022-11-16T23:36:31.820Z,7.86
2022-11-16T23:38:58.256Z,7.90
2022-11-16T23:41:43.231Z,7.70
2022-11-16T23:44:09.602Z,7.65
2022-11-16T23:46:35.975Z,7.87
2022-11-16T23:49:02.523Z,7.86
2022-11-16T23:51:29.014Z,7.89
2022-11-16T23:53:55.825Z,7.88
2022-11-16T23:56:22.323Z,7.77
2022-11-16T23:58:49.053Z,7.70
